^^
Datos históricos de la estación: Murcia-Puente Tocinos
Diario Informe para Julio 27, 2019 Unidades:  Métrico    Ingés   Ambas
Diario Semanal Mensual Anual
  Máxima: Mínima: Promedio:
Temperatura: 31.2 °C 20.9 °C 24.7 °C
Punto de rocio: 20.8 °C 17 °C 19.1 °C
Humedad: 92% 42.9% 74%
Velocidad viento: 14km/h 0km/h 5.8km/h
Racha viento: 22.5km/h - -
Viento- - SSE
Presión: 1018.0 hPa 1014.0 hPa -
Precipitación: 0.0 mm    
 
 
Tabla de datos para Julio 27, 2019
Hora Temperatura Punto de rocio Presión Viento Velocidad viento Racha viento Humedad Intensidad lluvia(por hora) Nubes
00:04 22.1 °C 20 °C 1017.9 hPa NE 3.9 km/h 9.7 km/h 88% 0.0 mm
00:09 22 °C 20 °C 1017.9 hPa NE 3.6 km/h 5.8 km/h 88.2% 0.0 mm
00:14 22 °C 19.9 °C 1017.9 hPa Este 2.9 km/h 8 km/h 88% 0.0 mm
00:19 22 °C 19.9 °C 1018.0 hPa Este 2.9 km/h 4.8 km/h 88% 0.0 mm
00:24 21.9 °C 19.6 °C 1018.0 hPa Este 2.9 km/h 3.9 km/h 87% 0.0 mm
00:29 21.9 °C 19.6 °C 1018.0 hPa NE 2.8 km/h 5.6 km/h 87% 0.0 mm
00:34 21.9 °C 19.6 °C 1018.0 hPa North 2.2 km/h 5.6 km/h 87% 0.0 mm
00:39 21.9 °C 19.8 °C 1017.9 hPa North 2.4 km/h 4.8 km/h 88% 0.0 mm
00:44 21.9 °C 19.8 °C 1017.9 hPa North 2.9 km/h 3.7 km/h 88% 0.0 mm
00:49 21.8 °C 19.8 °C 1017.9 hPa North 2.3 km/h 3.7 km/h 88% 0.0 mm
00:54 21.8 °C 19.7 °C 1017.9 hPa Calm   3.9 km/h 88% 0.0 mm
00:59 21.8 °C 19.7 °C 1017.9 hPa Calm   3.7 km/h 88% 0.0 mm
01:04 21.8 °C 19.7 °C 1017.9 hPa Calm   3.2 km/h 88% 0.0 mm
01:09 21.7 °C 19.7 °C 1017.8 hPa Calm   2.3 km/h 88% 0.0 mm
01:14 21.7 °C 19.6 °C 1017.8 hPa Calm   2.3 km/h 88% 0.0 mm
01:19 21.7 °C 19.6 °C 1017.8 hPa Calm   1.6 km/h 88% 0.0 mm
01:24 21.6 °C 19.5 °C 1017.8 hPa Calm     88% 0.0 mm
01:29 21.6 °C 19.5 °C 1017.8 hPa Calm   3.7 km/h 88% 0.0 mm
01:34 21.6 °C 19.5 °C 1017.8 hPa Calm   4.7 km/h 88% 0.0 mm
01:39 21.6 °C 19.4 °C 1017.7 hPa Calm   4.8 km/h 87% 0.0 mm
01:44 21.7 °C 19.4 °C 1017.7 hPa Calm   3.2 km/h 87% 0.0 mm
01:49 21.7 °C 19.5 °C 1017.7 hPa Calm   3.9 km/h 87.5% 0.0 mm
01:54 21.7 °C 19.6 °C 1017.5 hPa Calm   3.7 km/h 87.8% 0.0 mm
01:59 21.7 °C 19.4 °C 1017.5 hPa Calm   3.9 km/h 87% 0.0 mm
02:04 21.7 °C 19.3 °C 1017.5 hPa Calm   4.7 km/h 86.3% 0.0 mm
02:09 21.6 °C 19 °C 1017.5 hPa SE 0.6 km/h 5.6 km/h 85.1% 0.0 mm
02:14 21.6 °C 18.9 °C 1017.5 hPa SE 2.9 km/h 4.8 km/h 85% 0.0 mm
02:19 21.6 °C 18.9 °C 1017.5 hPa SE 2.8 km/h 3.9 km/h 85% 0.0 mm
02:24 21.6 °C 19 °C 1017.4 hPa SE 2.2 km/h 3.7 km/h 85.1% 0.0 mm
02:29 21.6 °C 19.2 °C 1017.4 hPa SE 1.7 km/h 5.8 km/h 86% 0.0 mm
02:34 21.7 °C 19.1 °C 1017.4 hPa Calm   6.4 km/h 85.5% 0.0 mm
02:39 21.6 °C 18.9 °C 1017.3 hPa SE 0.6 km/h 5.8 km/h 84.7% 0.0 mm
02:44 21.6 °C 18.8 °C 1017.3 hPa SE 2.9 km/h 6.4 km/h 84% 0.0 mm
02:49 21.6 °C 18.8 °C 1017.3 hPa SE 2.3 km/h 4.8 km/h 84% 0.0 mm
02:54 21.5 °C 18.6 °C 1017.3 hPa Calm   3.9 km/h 84% 0.0 mm
02:59 21.4 °C 18.6 °C 1017.3 hPa SE 0.6 km/h 3.7 km/h 84% 0.0 mm
03:04 21.3 °C 18.5 °C 1017.3 hPa SE 2.2 km/h 3.9 km/h 84% 0.0 mm
03:09 21.3 °C 18.6 °C 1017.2 hPa SE 2.2 km/h 4.7 km/h 84.6% 0.0 mm
03:14 21.3 °C 18.7 °C 1017.2 hPa SE 2.2 km/h 4.8 km/h 85% 0.0 mm
03:19 21.3 °C 18.7 °C 1017.2 hPa SE 1.7 km/h 4.8 km/h 85% 0.0 mm
03:24 21.2 °C 18.6 °C 1017.0 hPa Calm   3.7 km/h 85% 0.0 mm
03:29 21.2 °C 18.6 °C 1017.0 hPa Calm   3.2 km/h 85% 0.0 mm
03:34 21.2 °C 18.6 °C 1017.0 hPa Calm     85% 0.0 mm
03:39 21.1 °C 18.5 °C 1017.0 hPa Calm     85% 0.0 mm
03:44 21.1 °C 18.6 °C 1017.0 hPa Calm   3.9 km/h 85.9% 0.0 mm
03:49 21.1 °C 18.6 °C 1017.0 hPa Calm   3.7 km/h 86% 0.0 mm
03:54 21 °C 18.5 °C 1016.9 hPa Calm   1.6 km/h 86% 0.0 mm
03:59 20.9 °C 18.6 °C 1016.9 hPa Calm     86.7% 0.0 mm
04:04 21 °C 18.9 °C 1016.9 hPa Calm     87.6% 0.0 mm
04:09 21 °C 18.9 °C 1016.7 hPa Calm     88% 0.0 mm
04:14 21 °C 18.9 °C 1016.7 hPa Calm     88% 0.0 mm
04:19 20.9 °C 19 °C 1016.7 hPa Calm     88.7% 0.0 mm
04:24 20.9 °C 19 °C 1016.6 hPa Calm   5 km/h 89% 0.0 mm
04:29 21 °C 19.1 °C 1016.6 hPa SO 0.7 km/h 7.6 km/h 89% 0.0 mm
04:34 21 °C 19.1 °C 1016.6 hPa SO 2.9 km/h 8.4 km/h 89% 0.0 mm
04:39 21 °C 19.1 °C 1016.5 hPa SO 3.3 km/h 8.4 km/h 89% 0.0 mm
04:44 21 °C 19.1 °C 1016.5 hPa OSO 4.7 km/h 8.4 km/h 89% 0.0 mm
04:49 21 °C 19.1 °C 1016.6 hPa OSO 4.7 km/h 9.3 km/h 89% 0.0 mm
04:54 20.9 °C 19 °C 1016.6 hPa OSO 5 km/h 9.7 km/h 89.2% 0.0 mm
04:59 20.9 °C 19.2 °C 1016.6 hPa SO 4.7 km/h 8 km/h 90% 0.0 mm
05:04 20.9 °C 19.2 °C 1016.6 hPa SO 3.9 km/h 8.7 km/h 90% 0.0 mm
05:09 20.9 °C 19.2 °C 1016.5 hPa SO 4 km/h 9.7 km/h 90% 0.0 mm
05:14 20.9 °C 19.3 °C 1016.5 hPa SO 4.7 km/h 8.4 km/h 90.1% 0.0 mm
05:19 21.1 °C 19.5 °C 1016.6 hPa SO 4.7 km/h 11.1 km/h 91% 0.0 mm
05:24 21.1 °C 19.6 °C 1016.6 hPa OSO 5 km/h 11.3 km/h 91% 0.0 mm
05:29 21.1 °C 19.6 °C 1016.6 hPa OSO 5.2 km/h 11.3 km/h 91% 0.0 mm
05:34 21.1 °C 19.7 °C 1016.6 hPa OSO 5.8 km/h 11.1 km/h 91.9% 0.0 mm
05:39 21.1 °C 19.7 °C 1016.6 hPa OSO 5.6 km/h 11.3 km/h 92% 0.0 mm
05:44 21.1 °C 19.7 °C 1016.6 hPa OSO 5 km/h 11.1 km/h 92% 0.0 mm
05:49 21.1 °C 19.8 °C 1016.6 hPa SO 5 km/h 11.3 km/h 92% 0.0 mm
05:54 21.2 °C 19.6 °C 1016.6 hPa SO 5 km/h 13 km/h 91% 0.0 mm
05:59 21.1 °C 19.6 °C 1016.6 hPa SO 5.4 km/h 13 km/h 91.1% 0.0 mm
06:04 21.1 °C 19.7 °C 1016.6 hPa OSO 6.5 km/h 13 km/h 91.9% 0.0 mm
06:09 21.1 °C 19.7 °C 1016.6 hPa SO 6.6 km/h 12.9 km/h 92% 0.0 mm
06:14 21.1 °C 19.7 °C 1016.6 hPa OSO 6.9 km/h 11.3 km/h 92% 0.0 mm
06:19 21.1 °C 19.7 °C 1016.7 hPa SO 6.4 km/h 11.3 km/h 92% 0.0 mm
06:24 21.1 °C 19.7 °C 1016.7 hPa OSO 4.7 km/h 8 km/h 92% 0.0 mm
06:29 21.1 °C 19.7 °C 1016.7 hPa OSO 4.5 km/h 8 km/h 92% 0.0 mm
06:34 21.1 °C 19.7 °C 1016.8 hPa OSO 3.9 km/h 10 km/h 92% 0.0 mm
06:39 21.1 °C 19.6 °C 1016.8 hPa OSO 4.1 km/h 9.7 km/h 91.2% 0.0 mm
06:44 21.1 °C 19.6 °C 1016.8 hPa OSO 5 km/h 8.4 km/h 91% 0.0 mm
06:49 21.2 °C 19.6 °C 1016.8 hPa SO 4.7 km/h 8 km/h 91% 0.0 mm
06:54 21.2 °C 19.7 °C 1016.7 hPa SO 3.9 km/h 8 km/h 91% 0.0 mm
06:59 21.2 °C 19.5 °C 1016.7 hPa OSO 3.9 km/h 8 km/h 90.1% 0.0 mm
07:04 21.2 °C 19.5 °C 1016.8 hPa OSO 3.9 km/h 8 km/h 90% 0.0 mm
07:09 21.3 °C 19.6 °C 1016.8 hPa SO 4 km/h 10 km/h 90% 0.0 mm
07:14 21.3 °C 19.5 °C 1016.8 hPa SSO 4.7 km/h 9.7 km/h 89.4% 0.0 mm
07:19 21.2 °C 19.4 °C 1016.8 hPa SO 4.5 km/h 9.7 km/h 89% 0.0 mm
07:24 21.3 °C 19.4 °C 1016.8 hPa Oeste 3.9 km/h 8 km/h 89% 0.0 mm
07:29 21.2 °C 19.4 °C 1016.8 hPa Oeste 3.7 km/h 9.3 km/h 89% 0.0 mm
07:34 21.2 °C 19.3 °C 1016.8 hPa Oeste 3.2 km/h 9.7 km/h 89% 0.0 mm
07:39 21.2 °C 19.3 °C 1016.8 hPa OSO 3.6 km/h 9.7 km/h 89% 0.0 mm
07:44 21.2 °C 19.3 °C 1016.8 hPa OSO 4.7 km/h 11.1 km/h 89% 0.0 mm
07:49 21.2 °C 19.3 °C 1016.9 hPa OSO 4.9 km/h 11.3 km/h 89% 0.0 mm
07:54 21.1 °C 19.2 °C 1016.9 hPa Oeste 5.8 km/h 9.7 km/h 89% 0.0 mm
07:59 21.1 °C 19.2 °C 1016.9 hPa Oeste 5.5 km/h 9.3 km/h 89% 0.0 mm
08:04 21 °C 19.1 °C 1017.0 hPa Oeste 4.7 km/h 11.1 km/h 89% 0.0 mm
08:09 20.9 °C 19 °C 1017.0 hPa Oeste 4.9 km/h 11.3 km/h 89% 0.0 mm
08:14 20.9 °C 19 °C 1017.0 hPa Oeste 5.8 km/h 9.5 km/h 89% 0.0 mm
08:19 20.9 °C 19 °C 1017.0 hPa Oeste 5.6 km/h 9.7 km/h 89.1% 0.0 mm
08:24 20.9 °C 19 °C 1017.0 hPa Oeste 5 km/h 9.5 km/h 89.1% 0.0 mm
08:29 20.9 °C 19 °C 1017.0 hPa OSO 5.2 km/h 9.7 km/h 89% 0.0 mm
08:34 20.9 °C 19 °C 1017.0 hPa SO 5.8 km/h 8.4 km/h 89% 0.0 mm
08:39 20.9 °C 19 °C 1017.0 hPa SO 5.5 km/h 8 km/h 89% 0.0 mm
08:44 20.9 °C 19 °C 1017.0 hPa OSO 4.7 km/h 8 km/h 89% 0.0 mm
08:49 21 °C 19.1 °C 1017.1 hPa Oeste 4.5 km/h 8 km/h 89% 0.0 mm
08:54 21 °C 19.1 °C 1017.1 hPa OSO 3.9 km/h 8.4 km/h 89% 0.0 mm
08:59 21.1 °C 19.2 °C 1017.1 hPa Oeste 4.2 km/h 10 km/h 89% 0.0 mm
09:04 21.1 °C 19.2 °C 1017.2 hPa ONO 5 km/h 10 km/h 89% 0.0 mm
09:09 21.1 °C 19.2 °C 1017.2 hPa Oeste 5.2 km/h 9.7 km/h 89% 0.0 mm
09:14 21.2 °C 19.1 °C 1017.2 hPa OSO 5.8 km/h 9.7 km/h 88.2% 0.0 mm
09:19 21.2 °C 19.1 °C 1017.2 hPa Oeste 5.6 km/h 9.7 km/h 88% 0.0 mm
09:24 21.3 °C 19.3 °C 1017.2 hPa Oeste 5 km/h 8 km/h 88% 0.0 mm
09:29 21.6 °C 19.3 °C 1017.2 hPa SO 4.9 km/h 10 km/h 87.3% 0.0 mm
09:34 21.7 °C 19.4 °C 1017.2 hPa SO 4.7 km/h 9.7 km/h 87% 0.0 mm
09:39 21.8 °C 19.4 °C 1017.2 hPa SO 4.9 km/h 11.1 km/h 86.3% 0.0 mm
09:44 21.8 °C 19.3 °C 1017.2 hPa SO 5.8 km/h 11.3 km/h 86% 0.0 mm
09:49 21.7 °C 19.3 °C 1017.3 hPa SSO 6 km/h 11.9 km/h 86% 0.0 mm
09:54 21.7 °C 19.3 °C 1017.3 hPa SSO 6.9 km/h 11.3 km/h 86.6% 0.0 mm
09:59 21.7 °C 19.3 °C 1017.3 hPa OSO 6.9 km/h 11.9 km/h 86.3% 0.0 mm
10:04 21.8 °C 19.3 °C 1017.3 hPa SO 6.9 km/h 13 km/h 85.7% 0.0 mm
10:09 21.8 °C 19.3 °C 1017.3 hPa Oeste 7.1 km/h 13 km/h 85.7% 0.0 mm
10:14 21.8 °C 19.2 °C 1017.3 hPa Oeste 7.6 km/h 13 km/h 85% 0.0 mm
10:19 21.9 °C 19.1 °C 1017.5 hPa Oeste 7.4 km/h 13 km/h 84.6% 0.0 mm
10:24 21.9 °C 19 °C 1017.5 hPa OSO 6.9 km/h 12.9 km/h 83.7% 0.0 mm
10:29 22.2 °C 19.2 °C 1017.5 hPa Oeste 6.9 km/h 13 km/h 83.3% 0.0 mm
10:34 22.2 °C 19.1 °C 1017.5 hPa OSO 6.9 km/h 13.7 km/h 82.7% 0.0 mm
10:39 22.3 °C 19 °C 1017.5 hPa OSO 7.1 km/h 14.5 km/h 82% 0.0 mm
10:44 22.4 °C 19.1 °C 1017.5 hPa Oeste 7.6 km/h 11.3 km/h 81.7% 0.0 mm
10:49 22.7 °C 19.2 °C 1017.5 hPa SO 7 km/h 11.3 km/h 80.2% 0.0 mm
10:54 22.9 °C 19.1 °C 1017.5 hPa OSO 5 km/h 9.7 km/h 79% 0.0 mm
10:59 23.1 °C 19.3 °C 1017.5 hPa OSO 5.2 km/h 11.9 km/h 78.9% 0.0 mm
11:04 23.2 °C 19.2 °C 1017.5 hPa OSO 5.8 km/h 11.3 km/h 78% 0.0 mm
11:09 23.4 °C 19.1 °C 1017.5 hPa OSO 5.9 km/h 11.1 km/h 77.2% 0.0 mm
11:14 23.5 °C 19.2 °C 1017.5 hPa Oeste 6.5 km/h 11.3 km/h 77% 0.0 mm
11:19 23.7 °C 19.2 °C 1017.5 hPa SO 6.1 km/h 9.7 km/h 76% 0.0 mm
11:24 24 °C 19.4 °C 1017.5 hPa OSO 4.7 km/h 10.3 km/h 75.6% 0.0 mm
11:29 24.2 °C 19.3 °C 1017.5 hPa OSO 4.7 km/h 11.3 km/h 74.1% 0.0 mm
11:34 24.3 °C 19.4 °C 1017.5 hPa ONO 4.7 km/h 9.7 km/h 73.9% 0.0 mm
11:39 24.4 °C 19.3 °C 1017.4 hPa SSO 4.7 km/h 13 km/h 73% 0.0 mm
11:44 24.7 °C 19.3 °C 1017.4 hPa NO 5 km/h 12.9 km/h 72.1% 0.0 mm
11:49 24.8 °C 19.3 °C 1017.4 hPa OSO 4.9 km/h 8 km/h 71.6% 0.0 mm
11:54 25.1 °C 19.5 °C 1017.2 hPa Oeste 4.7 km/h 9.5 km/h 71.1% 0.0 mm
11:59 25.3 °C 19.5 °C 1017.2 hPa Este 4.7 km/h 9.7 km/h 70.2% 0.0 mm
12:04 25.7 °C 19.6 °C 1017.2 hPa ESE 4.7 km/h 8 km/h 69% 0.0 mm
12:09 26.2 °C 19.7 °C 1017.1 hPa SE 4.3 km/h 7.4 km/h 67.6% 0.0 mm
12:14 26.6 °C 19.6 °C 1017.1 hPa OSO 2.9 km/h 9.3 km/h 65.6% 0.0 mm
12:19 26.7 °C 19.5 °C 1017.1 hPa NO 3 km/h 9.7 km/h 64.7% 0.0 mm
12:24 26.8 °C 19.4 °C 1016.8 hPa OSO 3.2 km/h 9.3 km/h 63.9% 0.0 mm
12:29 26.8 °C 19.3 °C 1016.8 hPa OSO 3.4 km/h 9.7 km/h 63.5% 0.0 mm
12:34 26.8 °C 19.2 °C 1016.8 hPa Oeste 3.9 km/h 8 km/h 63.1% 0.0 mm
12:39 26.9 °C 19.1 °C 1016.7 hPa ESE 3.9 km/h 9.3 km/h 62.4% 0.0 mm
12:44 27 °C 19.1 °C 1016.7 hPa SE 3.9 km/h 9.7 km/h 62% 0.0 mm
12:49 27.2 °C 19.2 °C 1016.7 hPa Oeste 3.9 km/h 9.7 km/h 62% 0.0 mm
12:54 27.4 °C 19.3 °C 1016.6 hPa SSE 3.9 km/h 7.4 km/h 61.4% 0.0 mm
12:59 27.7 °C 19.5 °C 1016.6 hPa NNO 3.6 km/h 8 km/h 61% 0.0 mm
13:04 27.9 °C 19.5 °C 1016.6 hPa SSO 2.9 km/h 11.1 km/h 60.4% 0.0 mm
13:09 27.8 °C 19.6 °C 1016.4 hPa SO 3.5 km/h 11.3 km/h 61% 0.0 mm
13:14 27.7 °C 19.5 °C 1016.4 hPa SO 5.8 km/h 10 km/h 61.2% 0.0 mm
13:19 27.6 °C 19.7 °C 1016.4 hPa OSO 5.3 km/h 9.7 km/h 62% 0.0 mm
13:24 27.8 °C 19.7 °C 1016.1 hPa SSO 3.9 km/h 8 km/h 61.3% 0.0 mm
13:29 28.1 °C 19.8 °C 1016.1 hPa Sur 4 km/h 9.3 km/h 60.7% 0.0 mm
13:34 28.3 °C 19.9 °C 1016.1 hPa ESE 4.7 km/h 9.7 km/h 60.2% 0.0 mm
13:39 28.6 °C 19.9 °C 1016.0 hPa Este 4.7 km/h 9.7 km/h 59.5% 0.0 mm
13:44 28.7 °C 19.8 °C 1016.0 hPa ENE 5 km/h 9.7 km/h 58.8% 0.0 mm
13:49 28.8 °C 19.8 °C 1016.0 hPa Este 4.7 km/h 8 km/h 58.4% 0.0 mm
13:54 29 °C 19.7 °C 1015.9 hPa NO 3.9 km/h 10 km/h 57.2% 0.0 mm
13:59 29.3 °C 19.1 °C 1015.9 hPa SE 4.1 km/h 11.1 km/h 54.2% 0.0 mm
14:04 29.3 °C 18.6 °C 1015.9 hPa SSO 4.7 km/h 11.3 km/h 52.3% 0.0 mm
14:09 29.4 °C 18.3 °C 1015.7 hPa ESE 4.9 km/h 13 km/h 51.2% 0.0 mm
14:14 29.6 °C 17.9 °C 1015.7 hPa Este 5.8 km/h 12.9 km/h 49.6% 0.0 mm
14:19 29.8 °C 17.9 °C 1015.7 hPa NE 5.3 km/h 9.7 km/h 49% 0.0 mm
14:24 30.1 °C 17.9 °C 1015.4 hPa NE 3.9 km/h 10 km/h 48.1% 0.0 mm
14:29 30.4 °C 17.5 °C 1015.4 hPa North 4 km/h 14.8 km/h 46% 0.0 mm
14:34 30.5 °C 17.6 °C 1015.4 hPa ESE 4.7 km/h 14.5 km/h 46.1% 0.0 mm
14:39 30.4 °C 17.5 °C 1015.3 hPa SSE 5.2 km/h 12.9 km/h 46% 0.0 mm
14:44 30.5 °C 17.5 °C 1015.3 hPa ESE 6.9 km/h 14.8 km/h 45.6% 0.0 mm
14:49 30.6 °C 17.5 °C 1015.3 hPa ESE 7.1 km/h 14.8 km/h 45.5% 0.0 mm
14:54 30.5 °C 17.5 °C 1015.2 hPa Este 7.6 km/h 14.5 km/h 46% 0.0 mm
14:59 30.7 °C 17.7 °C 1015.2 hPa ENE 6.9 km/h 13.7 km/h 45.9% 0.0 mm
15:04 30.7 °C 17.5 °C 1015.2 hPa ESE 5 km/h 14.8 km/h 45.3% 0.0 mm
15:09 30.7 °C 17.4 °C 1015.0 hPa ESE 5.7 km/h 14.8 km/h 45% 0.0 mm
15:14 30.8 °C 17.6 °C 1015.0 hPa Este 8.4 km/h 19 km/h 45.3% 0.0 mm
15:19 30.8 °C 17.3 °C 1015.0 hPa ESE 8.4 km/h 19.3 km/h 44.3% 0.0 mm
15:24 30.8 °C 17.3 °C 1014.8 hPa ENE 8.4 km/h 19.3 km/h 44.4% 0.0 mm
15:29 30.8 °C 17.4 °C 1014.8 hPa ENE 8.6 km/h 16.7 km/h 44.6% 0.0 mm
15:34 30.8 °C 17.3 °C 1014.8 hPa Este 9.5 km/h 16.1 km/h 44.4% 0.0 mm
15:39 30.9 °C 17.2 °C 1014.6 hPa ENE 9 km/h 16.1 km/h 44% 0.0 mm
15:44 31 °C 17.3 °C 1014.6 hPa ESE 7.6 km/h 20.9 km/h 44% 0.0 mm
15:49 30.8 °C 17.2 °C 1014.6 hPa ESE 8.5 km/h 20.9 km/h 44.1% 0.0 mm
15:54 30.7 °C 17.1 °C 1014.6 hPa Este 11.9 km/h 19.3 km/h 44% 0.0 mm
15:59 30.7 °C 17.1 °C 1014.6 hPa Este 11.7 km/h 20.1 km/h 44% 0.0 mm
16:04 30.8 °C 17 °C 1014.6 hPa ESE 11.1 km/h 20.9 km/h 43.8% 0.0 mm
16:09 30.8 °C 17.1 °C 1014.4 hPa ESE 11.3 km/h 20.9 km/h 43.9% 0.0 mm
16:14 30.9 °C 17 °C 1014.4 hPa ESE 11.9 km/h 18.5 km/h 43.4% 0.0 mm
16:19 30.9 °C 17.1 °C 1014.4 hPa SE 11.7 km/h 20.4 km/h 43.7% 0.0 mm
16:24 30.8 °C 17 °C 1014.3 hPa ESE 11.1 km/h 20.9 km/h 43.5% 0.0 mm
16:29 30.9 °C 17.2 °C 1014.3 hPa SE 10.9 km/h 18.5 km/h 43.9% 0.0 mm
16:34 31.1 °C 17.4 °C 1014.3 hPa SE 10.3 km/h 19.3 km/h 43.8% 0.0 mm
16:39 31.2 °C 17.1 °C 1014.3 hPa SE 10.2 km/h 17.2 km/h 42.9% 0.0 mm
16:44 31.1 °C 17.1 °C 1014.3 hPa ESE 10 km/h 17.7 km/h 43.2% 0.0 mm
16:49 31.1 °C 17.3 °C 1014.3 hPa SE 10.4 km/h 20.4 km/h 43.9% 0.0 mm
16:54 31.2 °C 17.3 °C 1014.2 hPa ESE 11.9 km/h 20.9 km/h 43.6% 0.0 mm
16:59 31 °C 17 °C 1014.2 hPa ESE 11.5 km/h 19.3 km/h 43.3% 0.0 mm
17:04 31 °C 17 °C 1014.2 hPa SE 10.3 km/h 16.1 km/h 43% 0.0 mm
17:09 31.2 °C 17.1 °C 1014.0 hPa ESE 9.9 km/h 17.2 km/h 43.1% 0.0 mm
17:14 31.2 °C 17.2 °C 1014.0 hPa ESE 8.4 km/h 17.7 km/h 43.3% 0.0 mm
17:19 31.2 °C 17.1 °C 1014.0 hPa ESE 8.8 km/h 20.4 km/h 43% 0.0 mm
17:24 31.2 °C 17.2 °C 1014.0 hPa SE 10.3 km/h 20.9 km/h 43% 0.0 mm
17:29 31.1 °C 17.1 °C 1014.0 hPa SE 10.8 km/h 20.9 km/h 43.2% 0.0 mm
17:34 31 °C 17.3 °C 1014.0 hPa ESE 12.2 km/h 22.5 km/h 44% 0.0 mm
17:39 30.8 °C 17.2 °C 1014.0 hPa ESE 12.6 km/h 22.5 km/h 44.3% 0.0 mm
17:44 30.7 °C 17.4 °C 1014.0 hPa ESE 13.7 km/h 20.9 km/h 45% 0.0 mm
17:49 30.8 °C 17.4 °C 1014.0 hPa ESE 13.1 km/h 20.9 km/h 44.9% 0.0 mm
17:54 30.8 °C 17.5 °C 1014.0 hPa ESE 11.1 km/h 16.1 km/h 45% 0.0 mm
17:59 30.7 °C 17.5 °C 1014.0 hPa ESE 10.9 km/h 18.5 km/h 45.2% 0.0 mm
18:04 30.6 °C 17.5 °C 1014.0 hPa ESE 10.3 km/h 19.3 km/h 45.4% 0.0 mm
18:09 30.6 °C 17.5 °C 1014.0 hPa ESE 10.2 km/h 16.7 km/h 45.5% 0.0 mm
18:14 30.6 °C 17.6 °C 1014.0 hPa ESE 10 km/h 17.2 km/h 45.8% 0.0 mm
18:19 30.3 °C 17.6 °C 1014.0 hPa ESE 10.4 km/h 22.2 km/h 46.5% 0.0 mm
18:24 30.2 °C 17.7 °C 1014.0 hPa ESE 11.9 km/h 22.5 km/h 47.2% 0.0 mm
18:29 30.2 °C 18 °C 1014.0 hPa ESE 11.7 km/h 19.3 km/h 48% 0.0 mm
18:34 30 °C 17.8 °C 1014.1 hPa ESE 11.1 km/h 20.9 km/h 48.2% 0.0 mm
18:39 29.8 °C 17.9 °C 1014.1 hPa ESE 11.8 km/h 22.2 km/h 49% 0.0 mm
18:44 29.7 °C 17.9 °C 1014.1 hPa ESE 14 km/h 22.5 km/h 49.1% 0.0 mm
18:49 29.6 °C 18 °C 1014.1 hPa ESE 13.6 km/h 19.3 km/h 49.9% 0.0 mm
18:54 29.5 °C 18.2 °C 1014.1 hPa ESE 12.2 km/h 19.3 km/h 50.7% 0.0 mm
18:59 29.4 °C 18.2 °C 1014.1 hPa ESE 11.9 km/h 16.7 km/h 51% 0.0 mm
19:04 29.3 °C 18.4 °C 1014.2 hPa ESE 11.1 km/h 19 km/h 52% 0.0 mm
19:09 29.1 °C 18.5 °C 1014.2 hPa ESE 11.4 km/h 19.3 km/h 52.7% 0.0 mm
19:14 29 °C 18.4 °C 1014.2 hPa ESE 12.2 km/h 17.2 km/h 53% 0.0 mm
19:19 28.8 °C 18.5 °C 1014.4 hPa ESE 12 km/h 17.7 km/h 53.6% 0.0 mm
19:24 28.7 °C 18.6 °C 1014.4 hPa ESE 11.1 km/h 17.7 km/h 54.4% 0.0 mm
19:29 28.7 °C 18.7 °C 1014.4 hPa ESE 11.1 km/h 16.4 km/h 55% 0.0 mm
19:34 28.5 °C 18.8 °C 1014.4 hPa ESE 11.1 km/h 16.1 km/h 55.8% 0.0 mm
19:39 28.3 °C 18.9 °C 1014.4 hPa ESE 10.8 km/h 17.2 km/h 56.8% 0.0 mm
19:44 28.2 °C 19 °C 1014.4 hPa ESE 10 km/h 17.7 km/h 57.6% 0.0 mm
19:49 28 °C 19.1 °C 1014.5 hPa ESE 10 km/h 16.1 km/h 58.6% 0.0 mm
19:54 27.8 °C 19.3 °C 1014.5 hPa ESE 10 km/h 16.7 km/h 59.6% 0.0 mm
19:59 27.7 °C 19.4 °C 1014.5 hPa ESE 9.8 km/h 16.1 km/h 60.6% 0.0 mm
20:04 27.5 °C 19.4 °C 1014.6 hPa Este 9.5 km/h 14.8 km/h 61.5% 0.0 mm
20:09 27.4 °C 19.5 °C 1014.6 hPa Este 9.3 km/h 16.1 km/h 62% 0.0 mm
20:14 27.3 °C 19.4 °C 1014.6 hPa NE 8.7 km/h 16.7 km/h 62.3% 0.0 mm
20:19 27.1 °C 19.3 °C 1014.9 hPa NNE 8.9 km/h 18 km/h 62.5% 0.0 mm
20:24 26.9 °C 19.5 °C 1014.9 hPa NNE 9.5 km/h 19.3 km/h 63.8% 0.0 mm
20:29 26.8 °C 19.4 °C 1014.9 hPa NE 9.3 km/h 16.1 km/h 64% 0.0 mm
20:34 26.7 °C 19.9 °C 1015.1 hPa NE 8.7 km/h 14.8 km/h 66.1% 0.0 mm
20:39 26.5 °C 20.4 °C 1015.1 hPa NNE 8.6 km/h 13.7 km/h 69.1% 0.0 mm
20:44 26.2 °C 20.6 °C 1015.1 hPa NNE 8.4 km/h 14.8 km/h 71.5% 0.0 mm
20:49 25.8 °C 20.7 °C 1015.2 hPa NNE 8.6 km/h 16.1 km/h 73.4% 0.0 mm
20:54 25.7 °C 20.8 °C 1015.2 hPa North 9.5 km/h 16.1 km/h 74.6% 0.0 mm
20:59 25.3 °C 20.7 °C 1015.2 hPa NNE 9.2 km/h 17.2 km/h 75.6% 0.0 mm
21:04 25.2 °C 20.7 °C 1015.4 hPa North 8.4 km/h 17.7 km/h 76.7% 0.0 mm
21:09 24.9 °C 20.7 °C 1015.4 hPa North 8.4 km/h 16.7 km/h 77.5% 0.0 mm
21:14 24.7 °C 20.8 °C 1015.4 hPa NNE 8.4 km/h 16.1 km/h 78.5% 0.0 mm
21:19 24.6 °C 20.8 °C 1015.7 hPa NNE 8.6 km/h 18.5 km/h 79.4% 0.0 mm
21:24 24.3 °C 20.7 °C 1015.7 hPa NNE 9.5 km/h 19.3 km/h 80.3% 0.0 mm
21:29 24.2 °C 20.7 °C 1015.7 hPa NNE 9.6 km/h 19.3 km/h 81% 0.0 mm
21:34 24.1 °C 20.8 °C 1015.9 hPa NNE 10 km/h 16.1 km/h 81.9% 0.0 mm
21:39 23.9 °C 20.7 °C 1015.9 hPa NNE 9.6 km/h 14.5 km/h 82% 0.0 mm
21:44 23.8 °C 20.7 °C 1015.9 hPa NNE 8.4 km/h 14.8 km/h 82.7% 0.0 mm
21:49 23.8 °C 20.7 °C 1016.0 hPa NNE 8.2 km/h 14.8 km/h 83% 0.0 mm
21:54 23.7 °C 20.7 °C 1016.0 hPa NNE 7.6 km/h 12.9 km/h 83% 0.0 mm
21:59 23.6 °C 20.7 °C 1016.0 hPa NE 7.6 km/h 13 km/h 83.6% 0.0 mm
22:04 23.6 °C 20.7 °C 1016.2 hPa NNE 7.6 km/h 12.9 km/h 84% 0.0 mm
22:09 23.5 °C 20.6 °C 1016.2 hPa NNE 7.3 km/h 9.7 km/h 84% 0.0 mm
22:14 23.4 °C 20.6 °C 1016.2 hPa NNE 6.5 km/h 11.9 km/h 84% 0.0 mm
22:19 23.3 °C 20.7 °C 1016.4 hPa NNE 6.3 km/h 11.3 km/h 85% 0.0 mm
22:24 23.3 °C 20.6 °C 1016.4 hPa NE 5.8 km/h 13 km/h 85% 0.0 mm
22:29 23.2 °C 20.6 °C 1016.4 hPa NNE 6 km/h 12.9 km/h 85% 0.0 mm
22:34 23.1 °C 20.6 °C 1016.5 hPa NNE 6.9 km/h 11.3 km/h 85.8% 0.0 mm
22:39 23.1 °C 20.6 °C 1016.5 hPa NNE 6.7 km/h 10 km/h 86% 0.0 mm
22:44 23 °C 20.5 °C 1016.5 hPa NNE 5.8 km/h 9.7 km/h 86% 0.0 mm
22:49 22.9 °C 20.5 °C 1016.6 hPa NE 5.6 km/h 8 km/h 86.1% 0.0 mm
22:54 22.9 °C 20.6 °C 1016.6 hPa NNE 5 km/h 11.1 km/h 87% 0.0 mm
22:59 22.9 °C 20.6 °C 1016.6 hPa NNE 5.2 km/h 11.3 km/h 87% 0.0 mm
23:04 22.8 °C 20.5 °C 1016.7 hPa NNE 5.8 km/h 9.7 km/h 87% 0.0 mm
23:09 22.8 °C 20.5 °C 1016.7 hPa NNE 5.6 km/h 9.7 km/h 87% 0.0 mm
23:14 22.8 °C 20.5 °C 1016.7 hPa North 5 km/h 8.4 km/h 87% 0.0 mm
23:19 22.8 °C 20.5 °C 1017.0 hPa NNE 5 km/h 9.3 km/h 87% 0.0 mm
23:24 22.8 °C 20.5 °C 1017.0 hPa North 5 km/h 9.7 km/h 87% 0.0 mm
23:29 22.8 °C 20.5 °C 1017.0 hPa NNO 4.7 km/h 8.4 km/h 87% 0.0 mm
23:34 22.8 °C 20.5 °C 1017.1 hPa NNO 3.9 km/h 8.4 km/h 87% 0.0 mm
23:39 22.7 °C 20.5 °C 1017.1 hPa NNO 4 km/h 8.4 km/h 87% 0.0 mm
23:44 22.7 °C 20.5 °C 1017.1 hPa NNO 4.7 km/h 8 km/h 87.1% 0.0 mm
23:49 22.7 °C 20.6 °C 1017.1 hPa North 4.5 km/h 8 km/h 88% 0.0 mm
23:54 22.7 °C 20.5 °C 1017.1 hPa NNE 3.9 km/h 8.4 km/h 88% 0.0 mm
23:59 22.6 °C 20.5 °C 1017.1 hPa NNE 4.1 km/h 8.4 km/h 88% 0.0 mm
Murcia-Puente Tocinos, España
Compliments of Weather Underground - 3 mb

La estación de MeteoMurcia.com, publica sus datos en los siguientes proyectos:

Weather Underground PWS IMURCIAP2 Meteoclimatic www.awekas.at

W3Counter
Web Analytics